Nador International Airport

Airport
ICAO code: 
GMMW
IATA Code: 
NDR
Summary
ICAO Region: 
AFI
Territory: 
Location: 
Nador, Oriental region
Serving: 
Nador
Elevation: 
574 ft
Coordinates: 
Aerial View: 
34° 59' 21.001" N, 3° 1' 40.001" W
Metar
Observation
GMMW 191600Z 04010KT 360V070 5000 SCT007 23/17 Q1016 NOSIG
Station
Nador/Arwi
Date/Time
2022-05-19 16:00:00
Wind direction
40°
Wind speed
10 kts
Lowest cloud amount
scattered clouds
Temperature
23°C
Dew point
17°C
Humidity
69%
QNH
1016 hPa
Weather condition
n/a

Nador International Airport is an airport serving Nador, a city in the Oriental region in Morocco. It is also known as Al Aroui International Airport or Arwi Airport.

Climatology

Dry-summer subtropical ”Mediterranean" climate (Köppen climate classification Csa)

Runways

Designator Length Width Surface Rops
8/26 3000 45 ASP No/No
Airport map: 
Aerial View: 

SKYbrary Partners:

Safety knowledge contributed by: